sensor_id;sensor_type;location;lat;lon;timestamp;pressure;altitude;pressure_sealevel;temperature;humidity
13314;BME280;6725;48.112;11.604;2022-10-14T00:00:17;93928.63;;;12.82;100.00
13314;BME280;6725;48.112;11.604;2022-10-14T00:02:43;93934.84;;;12.82;100.00
13314;BME280;6725;48.112;11.604;2022-10-14T00:05:08;93931.03;;;12.80;100.00
13314;BME280;6725;48.112;11.604;2022-10-14T00:07:35;93923.59;;;12.80;100.00
13314;BME280;6725;48.112;11.604;2022-10-14T00:10:00;93920.41;;;12.82;100.00
13314;BME280;6725;48.112;11.604;2022-10-14T00:12:27;93916.44;;;12.83;100.00
13314;BME280;6725;48.112;11.604;2022-10-14T00:14:53;93916.13;;;12.81;100.00
13314;BME280;6725;48.112;11.604;2022-10-14T00:17:18;93903.78;;;12.76;100.00
13314;BME280;6725;48.112;11.604;2022-10-14T00:19:44;93902.25;;;12.75;100.00
13314;BME280;6725;48.112;11.604;2022-10-14T00:22:09;93905.16;;;12.72;100.00
13314;BME280;6725;48.112;11.604;2022-10-14T00:24:34;93904.72;;;12.73;100.00
13314;BME280;6725;48.112;11.604;2022-10-14T00:27:00;93901.19;;;12.73;100.00
13314;BME280;6725;48.112;11.604;2022-10-14T00:29:25;93901.34;;;12.69;100.00
13314;BME280;6725;48.112;11.604;2022-10-14T00:31:51;93897.84;;;12.69;100.00
13314;BME280;6725;48.112;11.604;2022-10-14T00:34:17;93893.59;;;12.68;100.00
13314;BME280;6725;48.112;11.604;2022-10-14T00:36:43;93896.31;;;12.68;100.00
13314;BME280;6725;48.112;11.604;2022-10-14T00:39:09;93892.38;;;12.69;100.00
13314;BME280;6725;48.112;11.604;2022-10-14T00:41:35;93897.84;;;12.69;100.00
13314;BME280;6725;48.112;11.604;2022-10-14T00:46:41;93879.88;;;12.68;100.00
13314;BME280;6725;48.112;11.604;2022-10-14T00:49:22;93886.88;;;12.69;100.00
13314;BME280;6725;48.112;11.604;2022-10-14T00:51:55;93883.38;;;12.68;100.00
13314;BME280;6725;48.112;11.604;2022-10-14T00:54:26;93883.09;;;12.66;100.00
13314;BME280;6725;48.112;11.604;2022-10-14T00:56:53;93888.06;;;12.59;100.00
13314;BME280;6725;48.112;11.604;2022-10-14T00:59:19;93889.28;;;12.58;100.00
13314;BME280;6725;48.112;11.604;2022-10-14T01:01:44;93892.16;;;12.54;100.00
13314;BME280;6725;48.112;11.604;2022-10-14T01:04:10;93886.69;;;12.54;100.00
13314;BME280;6725;48.112;11.604;2022-10-14T01:09:31;93881.34;;;12.51;100.00
13314;BME280;6725;48.112;11.604;2022-10-14T01:12:30;93878.00;;;12.47;100.00
13314;BME280;6725;48.112;11.604;2022-10-14T01:15:14;93878.44;;;12.45;100.00
13314;BME280;6725;48.112;11.604;2022-10-14T01:18:09;93877.69;;;12.45;100.00
13314;BME280;6725;48.112;11.604;2022-10-14T01:23:41;93887.72;;;12.39;100.00
13314;BME280;6725;48.112;11.604;2022-10-14T01:30:04;93876.59;;;12.33;100.00
13314;BME280;6725;48.112;11.604;2022-10-14T01:32:23;93878.09;;;12.34;100.00
13314;BME280;6725;48.112;11.604;2022-10-14T01:34:55;93878.88;;;12.35;100.00
13314;BME280;6725;48.112;11.604;2022-10-14T01:37:27;93876.44;;;12.37;100.00
13314;BME280;6725;48.112;11.604;2022-10-14T01:39:58;93874.94;;;12.36;100.00
13314;BME280;6725;48.112;11.604;2022-10-14T01:42:30;93871.75;;;12.37;100.00
13314;BME280;6725;48.112;11.604;2022-10-14T01:45:08;93871.28;;;12.39;100.00
13314;BME280;6725;48.112;11.604;2022-10-14T01:47:36;93870.06;;;12.40;100.00
13314;BME280;6725;48.112;11.604;2022-10-14T01:50:08;93873.13;;;12.42;100.00
13314;BME280;6725;48.112;11.604;2022-10-14T01:52:44;93867.66;;;12.42;100.00
13314;BME280;6725;48.112;11.604;2022-10-14T01:55:15;93864.59;;;12.40;100.00
13314;BME280;6725;48.112;11.604;2022-10-14T01:57:42;93864.59;;;12.40;100.00
13314;BME280;6725;48.112;11.604;2022-10-14T02:00:09;93863.69;;;12.43;100.00
13314;BME280;6725;48.112;11.604;2022-10-14T02:02:36;93868.22;;;12.37;100.00
13314;BME280;6725;48.112;11.604;2022-10-14T02:05:07;93871.28;;;12.39;100.00
13314;BME280;6725;48.112;11.604;2022-10-14T02:07:40;93865.50;;;12.37;100.00
13314;BME280;6725;48.112;11.604;2022-10-14T02:18:34;93858.50;;;12.36;100.00
13314;BME280;6725;48.112;11.604;2022-10-14T02:23:37;93867.16;;;12.34;100.00
13314;BME280;6725;48.112;11.604;2022-10-14T02:26:04;93865.19;;;12.35;100.00
13314;BME280;6725;48.112;11.604;2022-10-14T02:28:31;93874.59;;;12.34;100.00
13314;BME280;6725;48.112;11.604;2022-10-14T02:31:06;93873.09;;;12.33;100.00
13314;BME280;6725;48.112;11.604;2022-10-14T02:33:39;93877.50;;;12.30;100.00
13314;BME280;6725;48.112;11.604;2022-10-14T02:36:06;93870.34;;;12.33;100.00
13314;BME280;6725;48.112;11.604;2022-10-14T02:38:33;93870.66;;;12.35;100.00
13314;BME280;6725;48.112;11.604;2022-10-14T02:41:03;93871.88;;;12.34;100.00
13314;BME280;6725;48.112;11.604;2022-10-14T02:43:29;93872.03;;;12.30;100.00
13314;BME280;6725;48.112;11.604;2022-10-14T02:46:00;93883.75;;;12.31;100.00
13314;BME280;6725;48.112;11.604;2022-10-14T02:48:26;93884.19;;;12.29;100.00
13314;BME280;6725;48.112;11.604;2022-10-14T02:50:51;93884.63;;;12.28;100.00
13314;BME280;6725;48.112;11.604;2022-10-14T02:53:17;93883.41;;;12.29;100.00
13314;BME280;6725;48.112;11.604;2022-10-14T02:55:42;93884.63;;;12.28;100.00
13314;BME280;6725;48.112;11.604;2022-10-14T02:58:07;93879.47;;;12.30;100.00
13314;BME280;6725;48.112;11.604;2022-10-14T03:00:33;93882.19;;;12.30;100.00
13314;BME280;6725;48.112;11.604;2022-10-14T03:02:58;93884.94;;;12.30;100.00
13314;BME280;6725;48.112;11.604;2022-10-14T03:05:24;93888.56;;;12.27;100.00
13314;BME280;6725;48.112;11.604;2022-10-14T03:07:49;93879.16;;;12.28;100.00
13314;BME280;6725;48.112;11.604;2022-10-14T03:10:15;93890.22;;;12.24;100.00
13314;BME280;6725;48.112;11.604;2022-10-14T03:12:40;93885.97;;;12.23;100.00
13314;BME280;6725;48.112;11.604;2022-10-14T03:15:06;93893.41;;;12.23;100.00
13314;BME280;6725;48.112;11.604;2022-10-14T03:17:31;93886.44;;;12.22;100.00
13314;BME280;6725;48.112;11.604;2022-10-14T03:19:57;93898.59;;;12.21;100.00
13314;BME280;6725;48.112;11.604;2022-10-14T03:22:23;93890.69;;;12.23;100.00
13314;BME280;6725;48.112;11.604;2022-10-14T03:24:49;93892.53;;;12.26;100.00
13314;BME280;6725;48.112;11.604;2022-10-14T03:27:14;93894.50;;;12.25;100.00
13314;BME280;6725;48.112;11.604;2022-10-14T03:29:39;93888.56;;;12.27;100.00
13314;BME280;6725;48.112;11.604;2022-10-14T03:32:05;93894.03;;;12.27;100.00
13314;BME280;6725;48.112;11.604;2022-10-14T03:34:30;93887.66;;;12.30;100.00
13314;BME280;6725;48.112;11.604;2022-10-14T03:36:55;93890.09;;;12.28;100.00
13314;BME280;6725;48.112;11.604;2022-10-14T03:39:21;93891.31;;;12.27;100.00
13314;BME280;6725;48.112;11.604;2022-10-14T03:41:46;93881.91;;;12.28;100.00
13314;BME280;6725;48.112;11.604;2022-10-14T03:44:11;93893.91;;;12.30;100.00
13314;BME280;6725;48.112;11.604;2022-10-14T03:46:37;93890.72;;;12.32;100.00
13314;BME280;6725;48.112;11.604;2022-10-14T03:49:02;93892.25;;;12.33;100.00
13314;BME280;6725;48.112;11.604;2022-10-14T03:51:28;93888.28;;;12.34;100.00
13314;BME280;6725;48.112;11.604;2022-10-14T03:53:53;93887.53;;;12.33;100.00
13314;BME280;6725;48.112;11.604;2022-10-14T03:56:18;93893.75;;;12.34;100.00
13314;BME280;6725;48.112;11.604;2022-10-14T03:58:44;93886.31;;;12.34;100.00
13314;BME280;6725;48.112;11.604;2022-10-14T04:01:09;93888.28;;;12.34;100.00
13314;BME280;6725;48.112;11.604;2022-10-14T04:03:34;93878.88;;;12.35;100.00
13314;BME280;6725;48.112;11.604;2022-10-14T04:06:00;93886.31;;;12.34;100.00
13314;BME280;6725;48.112;11.604;2022-10-14T04:08:25;93892.25;;;12.33;100.00
13314;BME280;6725;48.112;11.604;2022-10-14T04:10:54;93889.22;;;12.31;100.00
13314;BME280;6725;48.112;11.604;2022-10-14T04:13:20;93885.69;;;12.30;100.00
13314;BME280;6725;48.112;11.604;2022-10-14T04:15:46;93890.72;;;12.32;100.00
13314;BME280;6725;48.112;11.604;2022-10-14T04:18:11;93883.75;;;12.31;100.00
13314;BME280;6725;48.112;11.604;2022-10-14T04:20:37;93879.16;;;12.28;100.00
13314;BME280;6725;48.112;11.604;2022-10-14T04:23:03;93876.72;;;12.30;100.00
13314;BME280;6725;48.112;11.604;2022-10-14T04:25:28;93867.31;;;12.31;100.00
13314;BME280;6725;48.112;11.604;2022-10-14T04:27:53;93877.63;;;12.27;100.00
13314;BME280;6725;48.112;11.604;2022-10-14T04:30:19;93871.41;;;12.26;100.00
13314;BME280;6725;48.112;11.604;2022-10-14T04:32:44;93870.63;;;12.26;100.00
13314;BME280;6725;48.112;11.604;2022-10-14T04:35:11;93872.91;;;12.27;100.00
13314;BME280;6725;48.112;11.604;2022-10-14T04:37:36;93876.53;;;12.24;100.00
13314;BME280;6725;48.112;11.604;2022-10-14T04:40:02;93869.09;;;12.25;100.00
13314;BME280;6725;48.112;11.604;2022-10-14T04:42:28;93870.00;;;12.22;100.00
13314;BME280;6725;48.112;11.604;2022-10-14T04:44:53;93869.22;;;12.21;100.00
13314;BME280;6725;48.112;11.604;2022-10-14T04:47:18;93867.28;;;12.22;100.00
13314;BME280;6725;48.112;11.604;2022-10-14T04:49:44;93857.53;;;12.21;100.00
13314;BME280;6725;48.112;11.604;2022-10-14T04:52:09;93863.00;;;12.21;100.00
13314;BME280;6725;48.112;11.604;2022-10-14T04:54:34;93861.50;;;12.20;100.00
13314;BME280;6725;48.112;11.604;2022-10-14T04:57:00;93861.50;;;12.20;100.00
13314;BME280;6725;48.112;11.604;2022-10-14T04:59:25;93864.81;;;12.15;100.00
13314;BME280;6725;48.112;11.604;2022-10-14T05:01:50;93857.81;;;12.14;100.00
13314;BME280;6725;48.112;11.604;2022-10-14T05:04:16;93861.00;;;12.12;100.00
13314;BME280;6725;48.112;11.604;2022-10-14T05:06:44;93861.16;;;12.09;100.00
13314;BME280;6725;48.112;11.604;2022-10-14T05:09:09;93858.09;;;12.07;100.00
13314;BME280;6725;48.112;11.604;2022-10-14T05:11:35;93863.56;;;12.07;100.00
13314;BME280;6725;48.112;11.604;2022-10-14T05:14:00;93856.56;;;12.06;100.00
13314;BME280;6725;48.112;11.604;2022-10-14T05:16:25;93864.78;;;12.06;100.00
13314;BME280;6725;48.112;11.604;2022-10-14T05:18:52;93856.56;;;12.06;100.00
13314;BME280;6725;48.112;11.604;2022-10-14T05:21:17;93859.75;;;12.04;100.00
13314;BME280;6725;48.112;11.604;2022-10-14T05:23:42;93858.09;;;12.07;100.00
13314;BME280;6725;48.112;11.604;2022-10-14T05:26:08;93848.66;;;12.08;100.00
13314;BME280;6725;48.112;11.604;2022-10-14T05:28:35;93851.41;;;12.08;100.00
13314;BME280;6725;48.112;11.604;2022-10-14T05:31:03;93849.63;;;12.23;100.00
13314;BME280;6725;48.112;11.604;2022-10-14T05:33:28;93846.00;;;12.26;100.00
13314;BME280;6725;48.112;11.604;2022-10-14T05:35:54;93851.78;;;12.28;100.00
13314;BME280;6725;48.112;11.604;2022-10-14T05:38:19;93851.78;;;12.28;100.00
13314;BME280;6725;48.112;11.604;2022-10-14T05:40:55;93850.91;;;12.31;100.00
13314;BME280;6725;48.112;11.604;2022-10-14T05:43:22;93849.97;;;12.34;100.00
13314;BME280;6725;48.112;11.604;2022-10-14T05:45:49;93847.22;;;12.34;100.00
13314;BME280;6725;48.112;11.604;2022-10-14T05:48:15;93849.19;;;12.24;100.00
13314;BME280;6725;48.112;11.604;2022-10-14T05:50:41;93854.47;;;12.19;100.00
13314;BME280;6725;48.112;11.604;2022-10-14T05:53:07;93862.41;;;12.17;100.00
13314;BME280;6725;48.112;11.604;2022-10-14T05:55:33;93860.22;;;12.12;100.00
13314;BME280;6725;48.112;11.604;2022-10-14T05:57:58;93866.47;;;12.12;100.00
13314;BME280;6725;48.112;11.604;2022-10-14T06:00:24;93855.72;;;12.27;100.00
13314;BME280;6725;48.112;11.604;2022-10-14T06:02:49;93860.56;;;12.23;100.00
13314;BME280;6725;48.112;11.604;2022-10-14T06:05:15;93864.81;;;12.15;100.00
13314;BME280;6725;48.112;11.604;2022-10-14T06:07:41;93855.38;;;12.16;100.00
13314;BME280;6725;48.112;11.604;2022-10-14T06:10:06;93852.69;;;12.25;100.00
13314;BME280;6725;48.112;11.604;2022-10-14T06:12:32;93850.91;;;12.31;100.00
13314;BME280;6725;48.112;11.604;2022-10-14T06:14:57;93850.59;;;12.38;100.00
13314;BME280;6725;48.112;11.604;2022-10-14T06:17:23;93849.69;;;12.41;100.00
13314;BME280;6725;48.112;11.604;2022-10-14T06:19:48;93848.78;;;12.35;100.00
13314;BME280;6725;48.112;11.604;2022-10-14T06:22:13;93848.19;;;12.49;100.00
13314;BME280;6725;48.112;11.604;2022-10-14T06:24:39;93850.31;;;12.45;100.00
13314;BME280;6725;48.112;11.604;2022-10-14T06:27:04;93838.16;;;12.55;100.00
13314;BME280;6725;48.112;11.604;2022-10-14T06:29:29;93853.81;;;12.45;100.00
13314;BME280;6725;48.112;11.604;2022-10-14T06:32:05;93838.16;;;12.55;100.00
13314;BME280;6725;48.112;11.604;2022-10-14T06:34:31;93838.94;;;12.55;100.00
13314;BME280;6725;48.112;11.604;2022-10-14T06:36:57;93844.56;;;12.61;100.00
13314;BME280;6725;48.112;11.604;2022-10-14T06:39:22;93844.25;;;12.59;100.00
13314;BME280;6725;48.112;11.604;2022-10-14T06:41:48;93844.56;;;12.70;100.00
13314;BME280;6725;48.112;11.604;2022-10-14T06:44:13;93835.91;;;12.71;100.00
13314;BME280;6725;48.112;11.604;2022-10-14T06:46:39;93841.88;;;12.79;100.00
13314;BME280;6725;48.112;11.604;2022-10-14T06:49:06;93841.41;;;12.89;100.00
13314;BME280;6725;48.112;11.604;2022-10-14T06:51:31;93844.03;;;13.02;100.00
13314;BME280;6725;48.112;11.604;2022-10-14T06:53:56;93836.88;;;13.04;100.00
13314;BME280;6725;48.112;11.604;2022-10-14T06:56:22;93851.31;;;12.96;100.00
13314;BME280;6725;48.112;11.604;2022-10-14T06:58:47;93850.13;;;13.06;100.00
13314;BME280;6725;48.112;11.604;2022-10-14T07:01:12;93840.53;;;13.10;100.00
13314;BME280;6725;48.112;11.604;2022-10-14T07:03:38;93844.03;;;13.20;100.00
13314;BME280;6725;48.112;11.604;2022-10-14T07:06:05;93830.91;;;13.33;100.00
13314;BME280;6725;48.112;11.604;2022-10-14T07:08:31;93834.56;;;13.48;100.00
13314;BME280;6725;48.112;11.604;2022-10-14T07:10:56;93825.41;;;13.60;100.00
13314;BME280;6725;48.112;11.604;2022-10-14T07:13:22;93816.53;;;13.65;100.00
13314;BME280;6725;48.112;11.604;2022-10-14T07:15:47;93814.53;;;13.75;100.00
13314;BME280;6725;48.112;11.604;2022-10-14T07:18:14;93789.34;;;14.50;100.00
13314;BME280;6725;48.112;11.604;2022-10-14T07:20:40;93699.38;;;16.39;100.00
13314;BME280;6725;48.112;11.604;2022-10-14T07:23:05;93641.16;;;17.85;100.00
13314;BME280;6725;48.112;11.604;2022-10-14T07:25:30;93637.41;;;19.00;100.00
13314;BME280;6725;48.112;11.604;2022-10-14T07:27:57;93701.91;;;19.28;100.00
13314;BME280;6725;48.112;11.604;2022-10-14T07:30:23;93766.31;;;19.23;100.00
13314;BME280;6725;48.112;11.604;2022-10-14T07:32:48;93843.25;;;18.66;100.00
13314;BME280;6725;48.112;11.604;2022-10-14T07:35:14;93862.13;;;19.15;100.00
13314;BME280;6725;48.112;11.604;2022-10-14T07:37:39;93894.72;;;19.31;100.00
13314;BME280;6725;48.112;11.604;2022-10-14T07:40:05;93924.44;;;19.36;100.00
13314;BME280;6725;48.112;11.604;2022-10-14T07:42:31;93924.06;;;20.35;100.00
13314;BME280;6725;48.112;11.604;2022-10-14T07:44:56;93939.25;;;21.16;100.00
13314;BME280;6725;48.112;11.604;2022-10-14T07:47:22;94017.38;;;20.49;100.00
13314;BME280;6725;48.112;11.604;2022-10-14T07:49:47;94051.06;;;19.72;100.00
13314;BME280;6725;48.112;11.604;2022-10-14T07:52:13;94066.34;;;19.25;100.00
13314;BME280;6725;48.112;11.604;2022-10-14T07:54:40;94064.09;;;19.04;100.00
13314;BME280;6725;48.112;11.604;2022-10-14T07:57:05;94053.22;;;19.57;100.00
13314;BME280;6725;48.112;11.604;2022-10-14T07:59:30;94073.44;;;19.32;100.00
13314;BME280;6725;48.112;11.604;2022-10-14T08:01:56;94078.44;;;19.65;100.00
13314;BME280;6725;48.112;11.604;2022-10-14T08:04:22;94091.28;;;19.62;100.00
13314;BME280;6725;48.112;11.604;2022-10-14T08:06:48;94078.31;;;20.21;100.00
13314;BME280;6725;48.112;11.604;2022-10-14T08:09:14;94102.22;;;20.13;100.00
13314;BME280;6725;48.112;11.604;2022-10-14T08:11:39;94100.34;;;21.71;100.00
13314;BME280;6725;48.112;11.604;2022-10-14T08:14:05;94115.66;;;23.47;100.00
13314;BME280;6725;48.112;11.604;2022-10-14T08:16:33;94193.72;;;24.95;100.00
13314;BME280;6725;48.112;11.604;2022-10-14T08:19:01;94938.56;;;25.57;100.00
13314;BME280;6725;48.112;11.604;2022-10-14T08:21:27;95308.81;;;25.42;100.00
13314;BME280;6725;48.112;11.604;2022-10-14T08:23:53;95340.44;;;25.60;100.00
13314;BME280;6725;48.112;11.604;2022-10-14T08:26:22;95350.81;;;25.48;100.00
13314;BME280;6725;48.112;11.604;2022-10-14T08:28:50;95339.34;;;25.04;100.00
13314;BME280;6725;48.112;11.604;2022-10-14T08:31:15;95337.28;;;24.99;100.00
13314;BME280;6725;48.112;11.604;2022-10-14T08:33:41;95353.06;;;25.02;100.00
13314;BME280;6725;48.112;11.604;2022-10-14T08:36:06;95352.38;;;25.60;100.00
13314;BME280;6725;48.112;11.604;2022-10-14T08:38:32;95350.28;;;25.97;100.00
13314;BME280;6725;48.112;11.604;2022-10-14T08:41:02;95355.41;;;26.26;100.00
13314;BME280;6725;48.112;11.604;2022-10-14T08:43:35;95360.97;;;26.04;100.00
13314;BME280;6725;48.112;11.604;2022-10-14T08:48:43;95358.97;;;26.27;100.00
13314;BME280;6725;48.112;11.604;2022-10-14T08:51:13;95357.59;;;25.95;100.00
13314;BME280;6725;48.112;11.604;2022-10-14T08:53:53;95368.97;;;26.77;96.36
13314;BME280;6725;48.112;11.604;2022-10-14T08:56:21;95361.81;;;26.54;98.08
13314;BME280;6725;48.112;11.604;2022-10-14T08:58:49;95362.38;;;26.86;94.65
13314;BME280;6725;48.112;11.604;2022-10-14T09:01:30;95368.97;;;26.66;83.50
13314;BME280;6725;48.112;11.604;2022-10-14T09:04:03;95367.22;;;26.74;81.83
13314;BME280;6725;48.112;11.604;2022-10-14T09:06:31;95371.50;;;26.53;81.89
13314;BME280;6725;48.112;11.604;2022-10-14T09:09:25;95374.53;;;26.44;88.75
13314;BME280;6725;48.112;11.604;2022-10-14T09:12:01;95370.69;;;26.25;86.35
13314;BME280;6725;48.112;11.604;2022-10-14T09:14:35;95381.84;;;26.09;82.97
13314;BME280;6725;48.112;11.604;2022-10-14T09:17:23;95362.69;;;25.01;89.76
13314;BME280;6725;48.112;11.604;2022-10-14T09:19:56;95353.59;;;23.93;100.00
13314;BME280;6725;48.112;11.604;2022-10-14T09:22:26;95344.38;;;23.47;100.00
13314;BME280;6725;48.112;11.604;2022-10-14T09:24:52;95341.44;;;23.16;100.00
13314;BME280;6725;48.112;11.604;2022-10-14T09:27:19;95338.34;;;23.14;100.00
13314;BME280;6725;48.112;11.604;2022-10-14T09:30:21;95334.88;;;23.19;100.00
13314;BME280;6725;48.112;11.604;2022-10-14T09:32:51;95331.75;;;23.71;100.00
13314;BME280;6725;48.112;11.604;2022-10-14T09:35:40;95344.53;;;23.58;100.00
13314;BME280;6725;48.112;11.604;2022-10-14T09:38:06;95352.41;;;23.05;100.00
13314;BME280;6725;48.112;11.604;2022-10-14T09:40:35;95339.97;;;22.86;100.00
13314;BME280;6725;48.112;11.604;2022-10-14T09:43:14;95332.47;;;23.46;100.00
13314;BME280;6725;48.112;11.604;2022-10-14T09:48:17;95346.22;;;24.72;93.91
13314;BME280;6725;48.112;11.604;2022-10-14T09:50:49;95345.91;;;25.32;90.27
13314;BME280;6725;48.112;11.604;2022-10-14T09:53:28;95335.66;;;25.23;94.64
13314;BME280;6725;48.112;11.604;2022-10-14T09:55:57;95346.91;;;25.93;87.14
13314;BME280;6725;48.112;11.604;2022-10-14T10:01:03;95352.47;;;25.29;81.74
13314;BME280;6725;48.112;11.604;2022-10-14T10:03:32;95344.41;;;25.00;83.19
13314;BME280;6725;48.112;11.604;2022-10-14T10:06:10;95353.31;;;24.67;80.90
13314;BME280;6725;48.112;11.604;2022-10-14T10:08:38;95348.63;;;24.90;79.02
13314;BME280;6725;48.112;11.604;2022-10-14T10:11:10;95343.03;;;25.26;80.55
13314;BME280;6725;48.112;11.604;2022-10-14T10:13:44;95347.22;;;24.69;80.48
13314;BME280;6725;48.112;11.604;2022-10-14T10:16:31;95344.22;;;24.21;76.91
13314;BME280;6725;48.112;11.604;2022-10-14T10:19:50;95347.41;;;24.91;77.40
13314;BME280;6725;48.112;11.604;2022-10-14T10:22:14;95361.13;;;25.84;65.18
13314;BME280;6725;48.112;11.604;2022-10-14T10:24:41;95359.25;;;26.23;62.21
13314;BME280;6725;48.112;11.604;2022-10-14T10:27:35;95352.59;;;26.15;67.58
13314;BME280;6725;48.112;11.604;2022-10-14T10:30:29;95348.31;;;26.42;62.69
13314;BME280;6725;48.112;11.604;2022-10-14T10:33:20;95342.00;;;26.74;63.70
13314;BME280;6725;48.112;11.604;2022-10-14T10:44:06;95311.63;;;26.18;66.96
13314;BME280;6725;48.112;11.604;2022-10-14T10:51:56;95307.28;;;26.28;70.08
13314;BME280;6725;48.112;11.604;2022-10-14T10:54:58;95301.13;;;25.96;70.70
13314;BME280;6725;48.112;11.604;2022-10-14T11:00:19;95289.19;;;24.89;78.77
13314;BME280;6725;48.112;11.604;2022-10-14T11:02:53;95289.63;;;24.46;81.00
13314;BME280;6725;48.112;11.604;2022-10-14T11:08:16;95275.91;;;23.06;100.00
13314;BME280;6725;48.112;11.604;2022-10-14T11:11:18;95270.75;;;22.99;99.74
13314;BME280;6725;48.112;11.604;2022-10-14T11:17:09;95255.94;;;21.51;100.00
13314;BME280;6725;48.112;11.604;2022-10-14T11:22:21;95249.34;;;21.10;100.00
13314;BME280;6725;48.112;11.604;2022-10-14T11:25:02;95238.78;;;21.38;100.00
13314;BME280;6725;48.112;11.604;2022-10-14T11:30:31;95240.81;;;21.66;100.00
13314;BME280;6725;48.112;11.604;2022-10-14T11:39:07;95228.16;;;21.51;100.00
13314;BME280;6725;48.112;11.604;2022-10-14T11:44:21;95226.88;;;21.37;100.00
13314;BME280;6725;48.112;11.604;2022-10-14T11:46:54;95217.47;;;21.20;100.00
13314;BME280;6725;48.112;11.604;2022-10-14T11:49:43;95204.34;;;21.35;100.00
13314;BME280;6725;48.112;11.604;2022-10-14T11:52:59;95206.75;;;21.42;100.00
13314;BME280;6725;48.112;11.604;2022-10-14T11:55:23;95213.00;;;21.52;100.00
13314;BME280;6725;48.112;11.604;2022-10-14T11:57:56;95213.09;;;21.57;100.00
13314;BME280;6725;48.112;11.604;2022-10-14T12:00:26;95214.75;;;21.64;100.00
13314;BME280;6725;48.112;11.604;2022-10-14T12:03:02;95210.16;;;21.75;100.00
13314;BME280;6725;48.112;11.604;2022-10-14T12:05:42;95214.66;;;21.58;100.00
13314;BME280;6725;48.112;11.604;2022-10-14T12:13:47;95210.13;;;22.04;100.00
13314;BME280;6725;48.112;11.604;2022-10-14T12:16:17;95204.97;;;21.83;100.00
13314;BME280;6725;48.112;11.604;2022-10-14T12:18:44;95205.06;;;21.88;100.00
13314;BME280;6725;48.112;11.604;2022-10-14T12:21:20;95206.22;;;21.96;100.00
13314;BME280;6725;48.112;11.604;2022-10-14T12:23:52;95202.88;;;21.92;100.00
13314;BME280;6725;48.112;11.604;2022-10-14T12:28:46;95186.69;;;21.76;100.00
13314;BME280;6725;48.112;11.604;2022-10-14T12:31:35;95179.56;;;21.75;100.00
13314;BME280;6725;48.112;11.604;2022-10-14T12:36:37;95170.44;;;21.31;100.00
13314;BME280;6725;48.112;11.604;2022-10-14T12:42:07;95172.75;;;21.18;100.00
13314;BME280;6725;48.112;11.604;2022-10-14T12:44:50;95163.69;;;20.94;100.00
13314;BME280;6725;48.112;11.604;2022-10-14T12:47:26;95159.34;;;20.55;100.00
13314;BME280;6725;48.112;11.604;2022-10-14T12:49:59;95157.44;;;20.61;100.00
13314;BME280;6725;48.112;11.604;2022-10-14T12:52:36;95150.56;;;20.57;100.00
13314;BME280;6725;48.112;11.604;2022-10-14T12:55:15;95160.53;;;20.63;100.00
13314;BME280;6725;48.112;11.604;2022-10-14T12:57:42;95161.91;;;20.44;100.00
13314;BME280;6725;48.112;11.604;2022-10-14T13:00:33;95158.94;;;20.48;100.00
13314;BME280;6725;48.112;11.604;2022-10-14T13:03:02;95152.47;;;20.65;100.00
13314;BME280;6725;48.112;11.604;2022-10-14T13:18:54;95153.44;;;20.62;100.00
13314;BME280;6725;48.112;11.604;2022-10-14T13:24:04;95158.09;;;20.80;100.00
13314;BME280;6725;48.112;11.604;2022-10-14T13:26:40;95147.47;;;20.55;100.00
13314;BME280;6725;48.112;11.604;2022-10-14T13:37:31;95148.38;;;20.05;100.00
13314;BME280;6725;48.112;11.604;2022-10-14T13:40:15;95152.91;;;19.93;100.00
13314;BME280;6725;48.112;11.604;2022-10-14T13:42:41;95158.47;;;19.84;100.00
13314;BME280;6725;48.112;11.604;2022-10-14T13:45:12;95144.63;;;19.42;100.00
13314;BME280;6725;48.112;11.604;2022-10-14T13:47:44;95122.38;;;19.10;100.00
13314;BME280;6725;48.112;11.604;2022-10-14T13:50:17;95105.34;;;18.93;100.00
13314;BME280;6725;48.112;11.604;2022-10-14T13:52:54;95062.16;;;18.87;100.00
13314;BME280;6725;48.112;11.604;2022-10-14T13:55:22;95003.44;;;18.74;100.00
13314;BME280;6725;48.112;11.604;2022-10-14T13:58:01;94954.91;;;18.64;100.00
13314;BME280;6725;48.112;11.604;2022-10-14T14:00:33;94872.50;;;18.68;100.00
13314;BME280;6725;48.112;11.604;2022-10-14T14:03:13;94801.94;;;18.72;100.00
13314;BME280;6725;48.112;11.604;2022-10-14T14:05:40;94728.88;;;18.79;100.00
13314;BME280;6725;48.112;11.604;2022-10-14T14:08:13;94719.72;;;18.73;100.00
13314;BME280;6725;48.112;11.604;2022-10-14T14:10:40;94709.13;;;18.71;100.00
13314;BME280;6725;48.112;11.604;2022-10-14T14:13:14;94706.81;;;18.70;100.00
13314;BME280;6725;48.112;11.604;2022-10-14T14:15:40;94651.75;;;18.57;100.00
13314;BME280;6725;48.112;11.604;2022-10-14T14:18:33;94408.72;;;18.21;100.00
13314;BME280;6725;48.112;11.604;2022-10-14T14:20:59;93702.63;;;17.80;100.00
13314;BME280;6725;48.112;11.604;2022-10-14T14:23:26;93882.94;;;17.61;100.00
13314;BME280;6725;48.112;11.604;2022-10-14T14:25:52;94121.53;;;17.40;100.00
13314;BME280;6725;48.112;11.604;2022-10-14T14:28:18;94253.09;;;17.28;100.00
13314;BME280;6725;48.112;11.604;2022-10-14T14:30:50;94271.56;;;16.99;100.00
13314;BME280;6725;48.112;11.604;2022-10-14T14:33:18;94257.50;;;16.97;100.00
13314;BME280;6725;48.112;11.604;2022-10-14T14:35:53;94241.88;;;16.94;100.00
13314;BME280;6725;48.112;11.604;2022-10-14T14:38:30;94243.41;;;16.95;100.00
13314;BME280;6725;48.112;11.604;2022-10-14T14:41:03;94253.94;;;16.82;100.00
13314;BME280;6725;48.112;11.604;2022-10-14T14:43:30;94259.72;;;16.84;100.00
13314;BME280;6725;48.112;11.604;2022-10-14T14:45:57;94267.63;;;16.76;100.00
13314;BME280;6725;48.112;11.604;2022-10-14T14:48:25;94270.50;;;16.58;100.00